createdAt,value
2023-06-02T00:01:07.530Z,83.70
2023-06-02T00:03:35.077Z,83.70
2023-06-02T00:06:02.675Z,83.70
2023-06-02T00:08:32.080Z,84.00
2023-06-02T00:10:59.203Z,83.90
2023-06-02T00:13:26.227Z,84.00
2023-06-02T00:15:52.932Z,84.30
2023-06-02T00:18:23.492Z,84.20
2023-06-02T00:20:53.444Z,84.70
2023-06-02T00:23:20.665Z,84.80
2023-06-02T00:25:47.322Z,84.80
2023-06-02T00:28:13.984Z,85.00
2023-06-02T00:30:40.650Z,85.20
2023-06-02T00:33:07.544Z,85.30
2023-06-02T00:35:34.228Z,85.50
2023-06-02T00:38:05.423Z,85.90
2023-06-02T00:40:32.949Z,86.10
2023-06-02T00:43:03.010Z,86.50
2023-06-02T00:45:29.737Z,86.80
2023-06-02T00:47:56.602Z,86.50
2023-06-02T00:50:26.182Z,86.90
2023-06-02T00:52:53.919Z,87.30
2023-06-02T00:55:20.720Z,87.50
2023-06-02T00:57:47.410Z,88.00
2023-06-02T01:00:15.502Z,87.90
2023-06-02T01:02:42.214Z,87.90
2023-06-02T01:05:11.933Z,88.00
2023-06-02T01:07:40.562Z,88.10
2023-06-02T01:10:08.432Z,88.20
2023-06-02T01:12:35.135Z,88.50
2023-06-02T01:15:01.921Z,89.10
2023-06-02T01:17:29.343Z,89.40
2023-06-02T01:19:57.324Z,89.40
2023-06-02T01:22:27.505Z,89.50
2023-06-02T01:24:58.861Z,89.80
2023-06-02T01:27:25.503Z,89.90
2023-06-02T01:29:53.407Z,90.00
2023-06-02T01:32:23.017Z,90.10
2023-06-02T01:34:53.532Z,89.90
2023-06-02T01:37:20.568Z,89.90
2023-06-02T01:39:47.978Z,89.80
2023-06-02T01:42:16.058Z,89.80
2023-06-02T01:44:43.886Z,90.00
2023-06-02T01:47:11.204Z,90.20
2023-06-02T01:49:37.859Z,90.40
2023-06-02T01:52:04.688Z,90.80
2023-06-02T01:54:32.556Z,91.20
2023-06-02T01:56:59.195Z,91.40
2023-06-02T01:59:26.757Z,91.40
2023-06-02T02:01:53.442Z,91.20
2023-06-02T02:04:20.098Z,91.20
2023-06-02T02:06:46.962Z,90.90
2023-06-02T02:09:13.623Z,90.90
2023-06-02T02:11:40.321Z,90.80
2023-06-02T02:14:06.996Z,90.60
2023-06-02T02:16:33.803Z,91.00
2023-06-02T02:19:01.396Z,91.20
2023-06-02T02:21:28.036Z,91.10
2023-06-02T02:23:55.784Z,91.00
2023-06-02T02:26:22.437Z,91.20
2023-06-02T02:28:49.870Z,91.10
2023-06-02T02:31:16.597Z,91.20
2023-06-02T02:33:43.245Z,91.00
2023-06-02T02:36:09.901Z,90.90
2023-06-02T02:38:36.543Z,91.20
2023-06-02T02:41:03.169Z,91.30
2023-06-02T02:43:29.833Z,91.20
2023-06-02T02:45:56.559Z,91.60
2023-06-02T02:48:23.197Z,91.50
2023-06-02T02:50:49.854Z,91.50
2023-06-02T02:53:17.443Z,91.20
2023-06-02T02:55:45.355Z,91.10
2023-06-02T02:58:12.151Z,91.10
2023-06-02T03:00:39.082Z,91.10
2023-06-02T03:03:06.954Z,91.10
2023-06-02T03:05:35.804Z,91.10
2023-06-02T03:08:03.578Z,91.10
2023-06-02T03:10:30.529Z,91.30
2023-06-02T03:12:57.219Z,91.20
2023-06-02T03:15:23.869Z,91.20
2023-06-02T03:17:52.259Z,91.20
2023-06-02T03:20:19.230Z,91.10
2023-06-02T03:22:45.879Z,91.10
2023-06-02T03:25:12.484Z,91.10
2023-06-02T03:27:39.122Z,90.80
2023-06-02T03:30:06.120Z,90.70
2023-06-02T03:32:33.016Z,90.60
2023-06-02T03:34:59.722Z,90.60
2023-06-02T03:37:26.488Z,90.70
2023-06-02T03:39:53.093Z,90.50
2023-06-02T03:42:19.817Z,90.60
2023-06-02T03:44:46.799Z,90.70
2023-06-02T03:47:13.424Z,90.50
2023-06-02T03:49:40.176Z,90.50
2023-06-02T03:52:06.848Z,90.40
2023-06-02T03:54:33.431Z,90.30
2023-06-02T03:57:00.826Z,90.30
2023-06-02T03:59:27.491Z,90.40
2023-06-02T04:01:54.187Z,90.70
2023-06-02T04:04:21.039Z,90.90
2023-06-02T04:06:48.070Z,90.80
2023-06-02T04:09:14.828Z,90.70
2023-06-02T04:11:41.925Z,90.80
2023-06-02T04:14:09.104Z,90.80
2023-06-02T04:16:35.850Z,90.90
2023-06-02T04:19:02.844Z,91.10
2023-06-02T04:21:29.667Z,90.80
2023-06-02T04:23:56.808Z,90.80
2023-06-02T04:26:23.437Z,90.60
2023-06-02T04:28:50.116Z,91.00
2023-06-02T04:31:27.685Z,90.90
2023-06-02T04:33:55.646Z,90.70
2023-06-02T04:36:22.461Z,90.40
2023-06-02T04:38:49.522Z,90.30
2023-06-02T04:41:16.185Z,90.40
2023-06-02T04:43:43.412Z,90.40
2023-06-02T04:46:11.629Z,90.50
2023-06-02T04:48:41.456Z,90.40
2023-06-02T04:51:08.514Z,90.20
2023-06-02T04:53:35.227Z,89.80
2023-06-02T04:56:03.117Z,90.00
2023-06-02T04:58:33.545Z,90.20
2023-06-02T05:01:01.674Z,90.10
2023-06-02T05:03:28.333Z,89.80
2023-06-02T05:05:54.925Z,89.20
2023-06-02T05:08:22.871Z,90.00
2023-06-02T05:10:49.510Z,90.10
2023-06-02T05:13:17.573Z,90.00
2023-06-02T05:15:45.237Z,89.70
2023-06-02T05:18:15.537Z,89.90
2023-06-02T05:20:42.636Z,90.20
2023-06-02T05:23:09.240Z,90.00
2023-06-02T05:25:35.871Z,89.70
2023-06-02T05:28:02.485Z,89.60
2023-06-02T05:30:29.106Z,89.30
2023-06-02T05:32:55.740Z,89.00
2023-06-02T05:35:22.456Z,88.90
2023-06-02T05:37:49.135Z,88.40
2023-06-02T05:40:15.865Z,88.20
2023-06-02T05:42:42.562Z,88.10
2023-06-02T05:45:09.390Z,87.60
2023-06-02T05:47:36.086Z,87.30
2023-06-02T05:50:02.873Z,86.70
2023-06-02T05:52:29.503Z,86.60
2023-06-02T05:54:56.189Z,86.90
2023-06-02T05:57:22.800Z,87.00
2023-06-02T05:59:49.423Z,86.70
2023-06-02T06:02:16.272Z,87.40
2023-06-02T06:04:42.893Z,87.40
2023-06-02T06:07:09.623Z,88.00
2023-06-02T06:09:36.327Z,89.20
2023-06-02T06:12:03.580Z,89.10
2023-06-02T06:14:30.375Z,88.80
2023-06-02T06:16:56.980Z,89.50
2023-06-02T06:19:23.596Z,89.40
2023-06-02T06:21:50.270Z,89.30
2023-06-02T06:24:16.922Z,89.90
2023-06-02T06:26:43.594Z,90.70
2023-06-02T06:29:10.226Z,91.00
2023-06-02T06:31:36.863Z,90.50
2023-06-02T06:34:03.933Z,90.20
2023-06-02T06:36:30.596Z,90.30
2023-06-02T06:38:57.349Z,90.10
2023-06-02T06:41:26.192Z,90.10
2023-06-02T06:43:52.927Z,89.80
2023-06-02T06:46:19.786Z,89.10
2023-06-02T06:48:47.802Z,89.60
2023-06-02T06:51:15.500Z,89.20
2023-06-02T06:53:42.325Z,89.00
2023-06-02T06:56:09.906Z,89.10
2023-06-02T06:58:36.675Z,88.50
2023-06-02T07:01:03.306Z,88.00
2023-06-02T07:03:30.905Z,87.90
2023-06-02T07:05:57.892Z,88.40
2023-06-02T07:08:24.589Z,88.60
2023-06-02T07:10:51.251Z,88.60
2023-06-02T07:13:19.795Z,88.50
2023-06-02T07:15:46.786Z,89.30
2023-06-02T07:18:13.721Z,89.20
2023-06-02T07:20:40.386Z,89.70
2023-06-02T07:23:07.016Z,89.00
2023-06-02T07:25:33.917Z,88.40
2023-06-02T07:28:01.569Z,88.30
2023-06-02T07:30:28.217Z,88.30
2023-06-02T07:32:54.851Z,89.50
2023-06-02T07:35:21.918Z,88.90
2023-06-02T07:37:53.170Z,88.40
2023-06-02T07:40:20.613Z,87.60
2023-06-02T07:42:47.600Z,88.60
2023-06-02T07:45:14.430Z,87.80
2023-06-02T07:47:41.274Z,87.30
2023-06-02T07:50:08.165Z,87.00
2023-06-02T07:52:35.749Z,87.20
2023-06-02T07:55:02.819Z,87.20
2023-06-02T07:57:30.184Z,87.40
2023-06-02T07:59:56.921Z,88.00
2023-06-02T08:02:23.694Z,88.00
2023-06-02T08:04:50.694Z,89.50
2023-06-02T08:07:17.510Z,88.90
2023-06-02T08:09:44.178Z,89.10
2023-06-02T08:12:10.923Z,90.30
2023-06-02T08:14:37.907Z,89.90
2023-06-02T08:17:04.702Z,87.50
2023-06-02T08:19:31.972Z,87.50
2023-06-02T08:21:59.745Z,88.20
2023-06-02T08:24:27.586Z,87.10
2023-06-02T08:26:55.534Z,86.90
2023-06-02T08:29:23.599Z,86.50
2023-06-02T08:31:50.514Z,87.10
2023-06-02T08:34:21.899Z,86.90
2023-06-02T08:36:57.358Z,86.00
2023-06-02T08:39:24.540Z,85.90
2023-06-02T08:41:52.111Z,83.10
2023-06-02T08:44:18.840Z,83.60
2023-06-02T08:46:49.370Z,83.10
2023-06-02T08:49:22.401Z,83.70
2023-06-02T08:51:52.560Z,83.90
2023-06-02T08:54:21.088Z,82.80
2023-06-02T08:56:50.432Z,80.70
2023-06-02T08:59:21.034Z,76.90
2023-06-02T09:01:48.360Z,73.60
2023-06-02T09:04:16.093Z,73.20
2023-06-02T09:06:43.802Z,74.50
2023-06-02T09:09:10.708Z,71.90
2023-06-02T09:11:37.418Z,69.50
2023-06-02T09:14:23.240Z,68.60
2023-06-02T09:16:50.102Z,65.80
2023-06-02T09:19:16.888Z,66.20
2023-06-02T09:21:43.692Z,66.20
2023-06-02T09:24:13.955Z,65.80
2023-06-02T09:26:52.999Z,65.40
2023-06-02T09:29:21.591Z,66.20
2023-06-02T09:31:49.715Z,67.60
2023-06-02T09:34:17.597Z,62.10
2023-06-02T09:36:44.885Z,62.30
2023-06-02T09:39:11.723Z,60.60
2023-06-02T09:41:41.705Z,59.30
2023-06-02T09:44:12.401Z,59.90
2023-06-02T09:46:39.706Z,56.60
2023-06-02T09:49:07.362Z,55.00
2023-06-02T09:51:34.380Z,56.60
2023-06-02T09:54:01.219Z,56.30
2023-06-02T09:56:30.598Z,56.10
2023-06-02T09:58:57.365Z,56.20
2023-06-02T10:01:24.030Z,53.70
2023-06-02T10:03:50.866Z,56.30
2023-06-02T10:06:25.616Z,54.70
2023-06-02T10:09:12.656Z,55.00
2023-06-02T10:12:15.018Z,54.40
2023-06-02T10:14:41.880Z,55.30
2023-06-02T10:17:26.978Z,56.20
2023-06-02T10:19:59.546Z,56.30
2023-06-02T10:22:29.033Z,56.20
2023-06-02T10:25:02.606Z,56.30
2023-06-02T10:27:33.405Z,56.70
2023-06-02T10:30:00.714Z,57.20
2023-06-02T10:32:29.964Z,56.80
2023-06-02T10:34:58.332Z,55.70
2023-06-02T10:37:25.024Z,55.70
2023-06-02T10:39:53.890Z,55.80
2023-06-02T10:42:21.678Z,56.00
2023-06-02T10:44:48.607Z,56.20
2023-06-02T10:47:18.384Z,55.60
2023-06-02T10:49:59.343Z,55.80
2023-06-02T10:52:31.151Z,56.60
2023-06-02T10:55:13.340Z,58.00
2023-06-02T10:57:52.718Z,62.10
2023-06-02T11:00:37.986Z,57.20
2023-06-02T11:03:25.157Z,57.30
2023-06-02T11:05:52.077Z,57.20
2023-06-02T11:08:19.916Z,57.00
2023-06-02T11:10:51.092Z,55.90
2023-06-02T11:13:21.776Z,56.00
2023-06-02T11:15:54.525Z,54.90
2023-06-02T11:18:24.282Z,55.80
2023-06-02T11:20:52.240Z,54.00
2023-06-02T11:23:19.654Z,53.80
2023-06-02T11:25:50.048Z,54.90
2023-06-02T11:28:18.544Z,53.90
2023-06-02T11:30:45.496Z,53.20
2023-06-02T11:33:12.116Z,53.80
2023-06-02T11:35:39.299Z,55.20
2023-06-02T11:38:09.311Z,55.10
2023-06-02T11:40:37.144Z,55.70
2023-06-02T11:43:04.691Z,54.30
2023-06-02T11:45:32.078Z,56.00
2023-06-02T11:48:00.554Z,55.10
2023-06-02T11:50:27.510Z,54.50
2023-06-02T11:52:54.385Z,54.40
2023-06-02T11:55:21.928Z,54.60
2023-06-02T11:57:48.651Z,54.50
2023-06-02T12:00:20.521Z,53.40
2023-06-02T12:02:54.239Z,52.30
2023-06-02T12:05:35.060Z,51.20
2023-06-02T12:08:28.024Z,50.10
2023-06-02T12:10:57.262Z,50.00
2023-06-02T12:13:32.191Z,48.30
2023-06-02T12:16:17.449Z,47.90
2023-06-02T12:18:44.180Z,47.00
2023-06-02T12:21:23.243Z,47.10
2023-06-02T12:23:51.483Z,46.50
2023-06-02T12:26:18.211Z,46.50
2023-06-02T12:28:45.217Z,44.30
2023-06-02T12:31:12.430Z,44.40
2023-06-02T12:33:41.420Z,46.10
2023-06-02T12:36:10.593Z,45.50
2023-06-02T12:38:37.862Z,45.20
2023-06-02T12:41:04.926Z,43.50
2023-06-02T12:43:31.766Z,44.40
2023-06-02T12:45:58.679Z,44.70
2023-06-02T12:48:25.373Z,43.30
2023-06-02T12:50:52.035Z,42.80
2023-06-02T12:53:18.722Z,44.50
2023-06-02T12:55:45.422Z,42.70
2023-06-02T12:58:12.098Z,42.70
2023-06-02T13:00:40.362Z,42.80
2023-06-02T13:03:07.502Z,41.60
2023-06-02T13:05:36.530Z,43.40
2023-06-02T13:08:03.380Z,42.70
2023-06-02T13:10:30.056Z,41.60
2023-06-02T13:12:56.700Z,43.30
2023-06-02T13:15:24.150Z,42.20
2023-06-02T13:17:51.457Z,41.70
2023-06-02T13:20:18.172Z,42.20
2023-06-02T13:22:44.853Z,41.80
2023-06-02T13:25:11.652Z,42.60
2023-06-02T13:27:42.715Z,41.30
2023-06-02T13:30:10.173Z,40.90
2023-06-02T13:32:36.959Z,41.50
2023-06-02T13:35:03.843Z,42.50
2023-06-02T13:37:30.636Z,43.60
2023-06-02T13:39:57.277Z,43.20
2023-06-02T13:42:23.966Z,42.00
2023-06-02T13:44:50.868Z,43.30
2023-06-02T13:47:17.576Z,42.40
2023-06-02T13:49:44.906Z,41.80
2023-06-02T13:52:11.546Z,41.70
2023-06-02T13:54:38.822Z,40.70
2023-06-02T13:57:06.129Z,42.50
2023-06-02T13:59:33.308Z,40.60
2023-06-02T14:01:59.974Z,42.80
2023-06-02T14:04:26.817Z,42.20
2023-06-02T14:06:54.399Z,42.40
2023-06-02T14:09:21.330Z,43.00
2023-06-02T14:11:48.040Z,43.20
2023-06-02T14:14:14.913Z,41.50
2023-06-02T14:16:41.708Z,42.00
2023-06-02T14:19:08.868Z,42.70
2023-06-02T14:21:36.602Z,43.00
2023-06-02T14:24:03.747Z,42.80
2023-06-02T14:26:30.494Z,41.90
2023-06-02T14:28:57.428Z,42.40
2023-06-02T14:31:24.105Z,41.30
2023-06-02T14:33:50.857Z,41.60
2023-06-02T14:36:17.908Z,43.80
2023-06-02T14:38:44.607Z,42.00
2023-06-02T14:41:11.475Z,43.20
2023-06-02T14:43:38.143Z,43.50
2023-06-02T14:46:07.495Z,44.30
2023-06-02T14:48:34.702Z,43.60
2023-06-02T14:51:01.424Z,43.40
2023-06-02T14:53:28.083Z,43.70
2023-06-02T14:55:55.769Z,41.60
2023-06-02T14:58:23.853Z,41.60
2023-06-02T15:00:51.111Z,43.30
2023-06-02T15:03:17.939Z,43.70
2023-06-02T15:05:44.918Z,42.50
2023-06-02T15:08:12.490Z,43.50
2023-06-02T15:10:39.251Z,43.90
2023-06-02T15:13:05.866Z,41.90
2023-06-02T15:15:33.472Z,42.70
2023-06-02T15:18:01.251Z,42.50
2023-06-02T15:20:28.085Z,43.30
2023-06-02T15:22:54.883Z,42.10
2023-06-02T15:25:21.530Z,43.10
2023-06-02T15:27:48.202Z,40.40
2023-06-02T15:30:14.918Z,41.00
2023-06-02T15:32:41.545Z,41.20
2023-06-02T15:35:08.504Z,41.10
2023-06-02T15:37:35.171Z,41.60
2023-06-02T15:40:02.034Z,42.20
2023-06-02T15:42:28.754Z,41.90
2023-06-02T15:44:55.655Z,41.00
2023-06-02T15:47:22.464Z,41.40
2023-06-02T15:49:49.314Z,41.10
2023-06-02T15:52:16.066Z,42.30
2023-06-02T15:54:42.697Z,40.80
2023-06-02T15:57:09.381Z,41.50
2023-06-02T15:59:36.061Z,41.90
2023-06-02T16:02:02.758Z,44.00
2023-06-02T16:04:29.489Z,43.40
2023-06-02T16:06:56.216Z,44.20
2023-06-02T16:09:22.906Z,44.30
2023-06-02T16:11:49.527Z,46.90
2023-06-02T16:14:16.150Z,43.90
2023-06-02T16:16:42.799Z,48.50
2023-06-02T16:19:09.906Z,45.20
2023-06-02T16:21:36.839Z,46.60
2023-06-02T16:24:04.290Z,45.00
2023-06-02T16:26:31.145Z,46.50
2023-06-02T16:28:57.867Z,47.60
2023-06-02T16:31:27.032Z,46.40
2023-06-02T16:33:53.962Z,47.60
2023-06-02T16:36:20.580Z,47.80
2023-06-02T16:38:47.295Z,46.90
2023-06-02T16:41:13.959Z,47.90
2023-06-02T16:43:40.728Z,48.90
2023-06-02T16:46:07.727Z,49.40
2023-06-02T16:48:34.740Z,50.40
2023-06-02T16:51:01.615Z,47.80
2023-06-02T16:53:29.679Z,48.40
2023-06-02T16:55:56.488Z,48.70
2023-06-02T16:58:23.108Z,49.40
2023-06-02T17:00:49.838Z,49.80
2023-06-02T17:03:16.576Z,49.20
2023-06-02T17:05:45.940Z,49.60
2023-06-02T17:08:13.307Z,49.90
2023-06-02T17:10:40.059Z,49.10
2023-06-02T17:13:06.719Z,49.50
2023-06-02T17:15:33.420Z,50.30
2023-06-02T17:18:00.282Z,50.90
2023-06-02T17:20:27.147Z,50.70
2023-06-02T17:22:53.899Z,51.90
2023-06-02T17:25:20.952Z,50.80
2023-06-02T17:27:47.725Z,51.40
2023-06-02T17:30:14.403Z,52.20
2023-06-02T17:32:41.042Z,51.30
2023-06-02T17:35:07.726Z,51.80
2023-06-02T17:37:35.092Z,51.90
2023-06-02T17:40:04.461Z,51.40
2023-06-02T17:42:32.218Z,51.30
2023-06-02T17:48:27.036Z,51.10
2023-06-02T17:51:14.130Z,52.10
2023-06-02T17:53:41.277Z,51.40
2023-06-02T17:56:08.032Z,51.40
2023-06-02T17:58:34.749Z,50.40
2023-06-02T18:01:01.608Z,50.60
2023-06-02T18:03:28.505Z,50.30
2023-06-02T18:05:56.099Z,51.70
2023-06-02T18:08:22.719Z,50.90
2023-06-02T18:10:49.539Z,50.50
2023-06-02T18:13:16.194Z,51.40
2023-06-02T18:15:43.065Z,51.60
2023-06-02T18:18:10.542Z,52.70
2023-06-02T18:20:37.301Z,51.60
2023-06-02T18:23:04.721Z,50.60
2023-06-02T18:25:31.412Z,51.00
2023-06-02T18:27:58.081Z,50.70
2023-06-02T18:30:24.850Z,51.40
2023-06-02T18:32:51.602Z,51.90
2023-06-02T18:35:18.432Z,51.80
2023-06-02T18:37:45.108Z,51.20
2023-06-02T18:40:12.093Z,51.60
2023-06-02T18:42:38.750Z,52.20
2023-06-02T18:45:05.966Z,51.40
2023-06-02T18:47:33.567Z,52.00
2023-06-02T18:50:00.415Z,52.80
2023-06-02T18:52:27.048Z,52.40
2023-06-02T18:54:54.453Z,52.20
2023-06-02T18:57:23.017Z,54.20
2023-06-02T18:59:49.792Z,52.50
2023-06-02T19:02:16.493Z,52.30
2023-06-02T19:04:43.216Z,53.50
2023-06-02T19:07:10.087Z,52.30
2023-06-02T19:09:37.056Z,53.70
2023-06-02T19:12:03.794Z,53.80
2023-06-02T19:14:30.433Z,53.60
2023-06-02T19:16:57.216Z,53.60
2023-06-02T19:19:24.067Z,54.10
2023-06-02T19:21:50.812Z,54.40
2023-06-02T19:24:17.480Z,54.60
2023-06-02T19:26:44.966Z,53.80
2023-06-02T19:29:11.721Z,54.10
2023-06-02T19:31:38.662Z,54.80
2023-06-02T19:34:05.755Z,54.50
2023-06-02T19:36:32.793Z,54.00
2023-06-02T19:38:59.402Z,54.30
2023-06-02T19:41:26.098Z,54.60
2023-06-02T19:43:52.822Z,55.10
2023-06-02T19:46:19.586Z,56.20
2023-06-02T19:48:46.296Z,54.30
2023-06-02T19:51:13.010Z,54.40
2023-06-02T19:53:39.682Z,54.20
2023-06-02T19:56:07.098Z,54.00
2023-06-02T19:58:34.708Z,54.40
2023-06-02T20:01:01.452Z,55.50
2023-06-02T20:03:28.888Z,55.70
2023-06-02T20:05:57.969Z,55.10
2023-06-02T20:08:27.893Z,56.00
2023-06-02T20:10:54.649Z,55.30
2023-06-02T20:13:23.064Z,55.10
2023-06-02T20:15:50.348Z,55.50
2023-06-02T20:18:18.356Z,55.00
2023-06-02T20:20:45.049Z,55.10
2023-06-02T20:23:11.688Z,54.90
2023-06-02T20:25:38.376Z,55.90
2023-06-02T20:28:05.266Z,55.10
2023-06-02T20:30:31.918Z,55.60
2023-06-02T20:32:59.075Z,56.00
2023-06-02T20:35:25.903Z,54.80
2023-06-02T20:37:52.652Z,55.00
2023-06-02T20:40:20.646Z,55.50
2023-06-02T20:42:47.453Z,54.90
2023-06-02T20:45:15.670Z,55.00
2023-06-02T20:47:42.435Z,55.50
2023-06-02T20:50:09.281Z,55.40
2023-06-02T20:52:36.329Z,55.10
2023-06-02T20:55:03.213Z,55.90
2023-06-02T20:57:29.809Z,55.80
2023-06-02T20:59:56.469Z,56.00
2023-06-02T21:02:24.472Z,55.80
2023-06-02T21:04:51.260Z,56.30
2023-06-02T21:07:17.863Z,56.20
2023-06-02T21:09:46.123Z,56.70
2023-06-02T21:12:12.776Z,57.50
2023-06-02T21:14:39.438Z,57.30
2023-06-02T21:17:06.251Z,57.10
2023-06-02T21:19:32.877Z,57.70
2023-06-02T21:21:59.503Z,57.60
2023-06-02T21:24:26.192Z,58.20
2023-06-02T21:26:52.865Z,58.40
2023-06-02T21:29:19.602Z,58.20
2023-06-02T21:31:46.293Z,59.00
2023-06-02T21:34:13.000Z,58.90
2023-06-02T21:36:39.642Z,58.90
2023-06-02T21:39:06.391Z,59.10
2023-06-02T21:41:33.045Z,59.60
2023-06-02T21:43:59.720Z,59.50
2023-06-02T21:46:26.402Z,60.00
2023-06-02T21:48:53.053Z,60.10
2023-06-02T21:51:19.678Z,60.20
2023-06-02T21:53:46.327Z,60.40
2023-06-02T21:56:13.057Z,60.90
2023-06-02T22:01:09.157Z,61.30
2023-06-02T22:03:35.965Z,61.10
2023-06-02T22:06:03.318Z,61.40
2023-06-02T22:08:29.972Z,61.50
2023-06-02T22:11:00.920Z,61.90
2023-06-02T22:13:30.756Z,61.90
2023-06-02T22:15:57.491Z,62.00
2023-06-02T22:18:24.170Z,62.00
2023-06-02T22:20:50.889Z,62.00
2023-06-02T22:23:17.626Z,62.10
2023-06-02T22:25:44.306Z,62.20
2023-06-02T22:28:11.552Z,62.70
2023-06-02T22:30:38.330Z,62.80
2023-06-02T22:33:05.050Z,62.90
2023-06-02T22:35:31.918Z,63.20
2023-06-02T22:37:58.565Z,63.00
2023-06-02T22:40:25.410Z,63.40
2023-06-02T22:42:52.057Z,63.30
2023-06-02T22:45:18.680Z,63.40
2023-06-02T22:47:45.606Z,63.80
2023-06-02T22:50:12.288Z,65.10
2023-06-02T22:52:38.964Z,65.00
2023-06-02T22:55:06.278Z,65.20
2023-06-02T22:57:32.960Z,64.50
2023-06-02T22:59:59.674Z,64.70
2023-06-02T23:02:26.344Z,64.50
2023-06-02T23:04:53.067Z,64.50
2023-06-02T23:07:19.781Z,64.80
2023-06-02T23:09:46.440Z,64.80
2023-06-02T23:12:13.085Z,64.60
2023-06-02T23:14:39.729Z,65.00
2023-06-02T23:17:06.463Z,65.10
2023-06-02T23:19:33.174Z,64.90
2023-06-02T23:21:59.822Z,65.40
2023-06-02T23:24:26.588Z,64.80
2023-06-02T23:26:53.237Z,64.80
2023-06-02T23:29:19.862Z,64.70
2023-06-02T23:31:46.512Z,64.70
2023-06-02T23:34:13.314Z,65.10
2023-06-02T23:36:40.090Z,65.00
2023-06-02T23:39:07.070Z,65.00
2023-06-02T23:41:33.679Z,65.10
2023-06-02T23:44:00.309Z,65.60
2023-06-02T23:46:27.014Z,65.30
2023-06-02T23:48:53.735Z,66.30
2023-06-02T23:51:20.638Z,65.40
2023-06-02T23:53:47.249Z,65.50
2023-06-02T23:56:13.911Z,65.70
2023-06-02T23:58:40.520Z,65.60
